sensor_id;sensor_type;location;lat;lon;timestamp;temperature;humidity
80279;DHT22;70683;52.492;13.416;2023-11-21T00:02:25;10.30;95.60
80279;DHT22;70683;52.492;13.416;2023-11-21T00:04:53;10.20;96.00
80279;DHT22;70683;52.492;13.416;2023-11-21T00:07:19;10.10;95.80
80279;DHT22;70683;52.492;13.416;2023-11-21T00:09:48;10.00;95.50
80279;DHT22;70683;52.492;13.416;2023-11-21T00:12:14;9.90;96.30
80279;DHT22;70683;52.492;13.416;2023-11-21T00:14:41;9.80;96.80
80279;DHT22;70683;52.492;13.416;2023-11-21T00:17:08;9.80;97.20
80279;DHT22;70683;52.492;13.416;2023-11-21T00:19:36;9.80;97.30
80279;DHT22;70683;52.492;13.416;2023-11-21T00:22:02;9.60;97.00
80279;DHT22;70683;52.492;13.416;2023-11-21T00:24:29;9.60;97.20
80279;DHT22;70683;52.492;13.416;2023-11-21T00:26:56;9.60;97.20
80279;DHT22;70683;52.492;13.416;2023-11-21T00:29:22;9.70;96.10
80279;DHT22;70683;52.492;13.416;2023-11-21T00:31:49;9.60;95.90
80279;DHT22;70683;52.492;13.416;2023-11-21T00:34:16;9.50;96.50
80279;DHT22;70683;52.492;13.416;2023-11-21T00:36:42;9.40;96.60
80279;DHT22;70683;52.492;13.416;2023-11-21T00:39:09;9.40;96.40
80279;DHT22;70683;52.492;13.416;2023-11-21T00:41:37;9.30;96.70
80279;DHT22;70683;52.492;13.416;2023-11-21T00:44:04;9.30;96.80
80279;DHT22;70683;52.492;13.416;2023-11-21T00:46:32;9.20;96.40
80279;DHT22;70683;52.492;13.416;2023-11-21T00:48:59;9.20;96.90
80279;DHT22;70683;52.492;13.416;2023-11-21T00:51:26;9.20;96.20
80279;DHT22;70683;52.492;13.416;2023-11-21T00:53:53;9.20;96.10
80279;DHT22;70683;52.492;13.416;2023-11-21T00:56:19;9.10;96.20
80279;DHT22;70683;52.492;13.416;2023-11-21T00:58:46;9.00;96.80
80279;DHT22;70683;52.492;13.416;2023-11-21T01:01:15;9.00;96.90
80279;DHT22;70683;52.492;13.416;2023-11-21T01:03:42;9.00;96.60
80279;DHT22;70683;52.492;13.416;2023-11-21T01:06:09;9.00;97.00
80279;DHT22;70683;52.492;13.416;2023-11-21T01:08:35;9.00;96.80
80279;DHT22;70683;52.492;13.416;2023-11-21T01:11:02;8.90;96.00
80279;DHT22;70683;52.492;13.416;2023-11-21T01:13:29;8.90;96.00
80279;DHT22;70683;52.492;13.416;2023-11-21T01:15:56;8.80;96.30
80279;DHT22;70683;52.492;13.416;2023-11-21T01:18:23;8.70;96.50
80279;DHT22;70683;52.492;13.416;2023-11-21T01:20:51;8.80;96.40
80279;DHT22;70683;52.492;13.416;2023-11-21T01:23:19;8.80;96.50
80279;DHT22;70683;52.492;13.416;2023-11-21T01:25:46;8.70;96.70
80279;DHT22;70683;52.492;13.416;2023-11-21T01:28:13;8.70;96.20
80279;DHT22;70683;52.492;13.416;2023-11-21T01:30:39;8.70;96.20
80279;DHT22;70683;52.492;13.416;2023-11-21T01:33:06;8.70;96.30
80279;DHT22;70683;52.492;13.416;2023-11-21T01:35:33;8.70;96.30
80279;DHT22;70683;52.492;13.416;2023-11-21T01:38:00;8.60;96.50
80279;DHT22;70683;52.492;13.416;2023-11-21T01:40:26;8.60;96.90
80279;DHT22;70683;52.492;13.416;2023-11-21T01:42:54;8.60;96.10
80279;DHT22;70683;52.492;13.416;2023-11-21T01:45:22;8.60;96.30
80279;DHT22;70683;52.492;13.416;2023-11-21T01:47:50;8.50;96.10
80279;DHT22;70683;52.492;13.416;2023-11-21T01:50:18;8.50;96.70
80279;DHT22;70683;52.492;13.416;2023-11-21T01:52:46;8.40;97.10
80279;DHT22;70683;52.492;13.416;2023-11-21T01:55:16;8.40;97.20
80279;DHT22;70683;52.492;13.416;2023-11-21T01:57:45;8.50;97.20
80279;DHT22;70683;52.492;13.416;2023-11-21T02:00:13;8.50;97.30
80279;DHT22;70683;52.492;13.416;2023-11-21T02:02:44;8.50;97.30
80279;DHT22;70683;52.492;13.416;2023-11-21T02:05:12;8.50;96.90
80279;DHT22;70683;52.492;13.416;2023-11-21T02:07:39;8.50;95.40
80279;DHT22;70683;52.492;13.416;2023-11-21T02:10:07;8.40;94.70
80279;DHT22;70683;52.492;13.416;2023-11-21T02:12:35;8.30;94.80
80279;DHT22;70683;52.492;13.416;2023-11-21T02:15:03;8.20;95.20
80279;DHT22;70683;52.492;13.416;2023-11-21T02:17:33;8.20;96.00
80279;DHT22;70683;52.492;13.416;2023-11-21T02:20:00;8.10;96.40
80279;DHT22;70683;52.492;13.416;2023-11-21T02:22:30;8.20;96.10
80279;DHT22;70683;52.492;13.416;2023-11-21T02:24:57;8.20;96.10
80279;DHT22;70683;52.492;13.416;2023-11-21T02:27:24;8.20;95.90
80279;DHT22;70683;52.492;13.416;2023-11-21T02:29:53;8.20;96.00
80279;DHT22;70683;52.492;13.416;2023-11-21T02:32:20;8.20;96.40
80279;DHT22;70683;52.492;13.416;2023-11-21T02:34:49;8.20;96.70
80279;DHT22;70683;52.492;13.416;2023-11-21T02:37:15;8.20;96.60
80279;DHT22;70683;52.492;13.416;2023-11-21T02:39:42;8.20;96.70
80279;DHT22;70683;52.492;13.416;2023-11-21T02:42:09;8.20;96.90
80279;DHT22;70683;52.492;13.416;2023-11-21T02:44:35;8.20;96.40
80279;DHT22;70683;52.492;13.416;2023-11-21T02:47:02;8.20;97.10
80279;DHT22;70683;52.492;13.416;2023-11-21T02:49:30;8.20;96.50
80279;DHT22;70683;52.492;13.416;2023-11-21T02:51:56;8.20;96.50
80279;DHT22;70683;52.492;13.416;2023-11-21T02:54:23;8.30;96.20
80279;DHT22;70683;52.492;13.416;2023-11-21T02:56:50;8.30;95.10
80279;DHT22;70683;52.492;13.416;2023-11-21T02:59:16;8.20;95.90
80279;DHT22;70683;52.492;13.416;2023-11-21T03:01:43;8.20;95.40
80279;DHT22;70683;52.492;13.416;2023-11-21T03:04:10;8.20;95.70
80279;DHT22;70683;52.492;13.416;2023-11-21T03:06:36;8.10;96.30
80279;DHT22;70683;52.492;13.416;2023-11-21T03:09:03;8.10;96.50
80279;DHT22;70683;52.492;13.416;2023-11-21T03:11:30;8.20;96.70
80279;DHT22;70683;52.492;13.416;2023-11-21T03:13:58;8.10;96.70
80279;DHT22;70683;52.492;13.416;2023-11-21T03:16:25;8.10;95.60
80279;DHT22;70683;52.492;13.416;2023-11-21T03:18:52;8.10;95.90
80279;DHT22;70683;52.492;13.416;2023-11-21T03:21:19;8.00;95.60
80279;DHT22;70683;52.492;13.416;2023-11-21T03:23:46;8.00;95.90
80279;DHT22;70683;52.492;13.416;2023-11-21T03:26:12;8.00;95.30
80279;DHT22;70683;52.492;13.416;2023-11-21T03:28:39;8.00;95.60
80279;DHT22;70683;52.492;13.416;2023-11-21T03:31:06;8.00;95.30
80279;DHT22;70683;52.492;13.416;2023-11-21T03:33:35;8.00;95.70
80279;DHT22;70683;52.492;13.416;2023-11-21T03:36:02;8.00;96.20
80279;DHT22;70683;52.492;13.416;2023-11-21T03:38:30;8.00;96.30
80279;DHT22;70683;52.492;13.416;2023-11-21T03:40:56;8.00;96.40
80279;DHT22;70683;52.492;13.416;2023-11-21T03:43:24;8.00;95.20
80279;DHT22;70683;52.492;13.416;2023-11-21T03:45:50;8.00;95.60
80279;DHT22;70683;52.492;13.416;2023-11-21T03:48:17;7.90;94.80
80279;DHT22;70683;52.492;13.416;2023-11-21T03:50:44;7.90;94.20
80279;DHT22;70683;52.492;13.416;2023-11-21T03:53:10;7.80;95.00
80279;DHT22;70683;52.492;13.416;2023-11-21T03:55:37;7.70;94.60
80279;DHT22;70683;52.492;13.416;2023-11-21T03:58:04;7.70;95.10
80279;DHT22;70683;52.492;13.416;2023-11-21T04:00:31;7.70;95.60
80279;DHT22;70683;52.492;13.416;2023-11-21T04:02:58;7.70;96.10
80279;DHT22;70683;52.492;13.416;2023-11-21T04:05:24;7.80;95.20
80279;DHT22;70683;52.492;13.416;2023-11-21T04:07:51;7.80;94.70
80279;DHT22;70683;52.492;13.416;2023-11-21T04:10:18;7.80;95.20
80279;DHT22;70683;52.492;13.416;2023-11-21T04:12:45;7.70;95.20
80279;DHT22;70683;52.492;13.416;2023-11-21T04:15:12;7.70;95.40
80279;DHT22;70683;52.492;13.416;2023-11-21T04:17:40;7.80;94.50
80279;DHT22;70683;52.492;13.416;2023-11-21T04:20:08;7.80;93.90
80279;DHT22;70683;52.492;13.416;2023-11-21T04:22:38;7.70;92.60
80279;DHT22;70683;52.492;13.416;2023-11-21T04:25:08;7.60;93.70
80279;DHT22;70683;52.492;13.416;2023-11-21T04:27:38;7.60;93.50
80279;DHT22;70683;52.492;13.416;2023-11-21T04:30:06;7.60;94.00
80279;DHT22;70683;52.492;13.416;2023-11-21T04:32:33;7.50;92.90
80279;DHT22;70683;52.492;13.416;2023-11-21T04:35:00;7.50;92.60
80279;DHT22;70683;52.492;13.416;2023-11-21T04:37:26;7.50;93.40
80279;DHT22;70683;52.492;13.416;2023-11-21T04:39:53;7.50;93.80
80279;DHT22;70683;52.492;13.416;2023-11-21T04:42:19;7.40;92.50
80279;DHT22;70683;52.492;13.416;2023-11-21T04:44:46;7.40;93.40
80279;DHT22;70683;52.492;13.416;2023-11-21T04:47:13;7.50;92.80
80279;DHT22;70683;52.492;13.416;2023-11-21T04:49:41;7.50;93.40
80279;DHT22;70683;52.492;13.416;2023-11-21T04:52:10;7.40;93.50
80279;DHT22;70683;52.492;13.416;2023-11-21T04:54:36;7.40;93.30
80279;DHT22;70683;52.492;13.416;2023-11-21T04:57:03;7.40;92.30
80279;DHT22;70683;52.492;13.416;2023-11-21T04:59:31;7.30;93.30
80279;DHT22;70683;52.492;13.416;2023-11-21T05:01:58;7.30;94.10
80279;DHT22;70683;52.492;13.416;2023-11-21T05:04:26;7.40;93.80
80279;DHT22;70683;52.492;13.416;2023-11-21T05:06:53;7.40;93.40
80279;DHT22;70683;52.492;13.416;2023-11-21T05:09:19;7.60;92.80
80279;DHT22;70683;52.492;13.416;2023-11-21T05:11:47;7.50;92.20
80279;DHT22;70683;52.492;13.416;2023-11-21T05:14:14;7.50;93.40
80279;DHT22;70683;52.492;13.416;2023-11-21T05:16:41;7.40;93.80
80279;DHT22;70683;52.492;13.416;2023-11-21T05:19:08;7.50;93.10
80279;DHT22;70683;52.492;13.416;2023-11-21T05:21:35;7.50;93.70
80279;DHT22;70683;52.492;13.416;2023-11-21T05:24:02;7.50;93.90
80279;DHT22;70683;52.492;13.416;2023-11-21T05:26:28;7.50;94.30
80279;DHT22;70683;52.492;13.416;2023-11-21T05:28:55;7.50;94.00
80279;DHT22;70683;52.492;13.416;2023-11-21T05:31:22;7.60;94.40
80279;DHT22;70683;52.492;13.416;2023-11-21T05:33:49;7.60;92.80
80279;DHT22;70683;52.492;13.416;2023-11-21T05:36:15;7.60;91.80
80279;DHT22;70683;52.492;13.416;2023-11-21T05:38:42;7.50;92.70
80279;DHT22;70683;52.492;13.416;2023-11-21T05:41:09;7.50;92.80
80279;DHT22;70683;52.492;13.416;2023-11-21T05:43:37;7.50;93.30
80279;DHT22;70683;52.492;13.416;2023-11-21T05:46:04;7.50;93.60
80279;DHT22;70683;52.492;13.416;2023-11-21T05:48:33;7.60;91.70
80279;DHT22;70683;52.492;13.416;2023-11-21T05:50:59;7.50;91.50
80279;DHT22;70683;52.492;13.416;2023-11-21T05:53:28;7.50;92.30
80279;DHT22;70683;52.492;13.416;2023-11-21T05:55:54;7.40;93.20
80279;DHT22;70683;52.492;13.416;2023-11-21T05:58:21;7.40;92.10
80279;DHT22;70683;52.492;13.416;2023-11-21T06:00:48;7.30;92.50
80279;DHT22;70683;52.492;13.416;2023-11-21T06:03:15;7.30;92.00
80279;DHT22;70683;52.492;13.416;2023-11-21T06:05:43;7.40;91.50
80279;DHT22;70683;52.492;13.416;2023-11-21T06:08:10;7.30;92.50
80279;DHT22;70683;52.492;13.416;2023-11-21T06:10:36;7.40;92.10
80279;DHT22;70683;52.492;13.416;2023-11-21T06:13:03;7.40;92.30
80279;DHT22;70683;52.492;13.416;2023-11-21T06:15:30;7.40;92.70
80279;DHT22;70683;52.492;13.416;2023-11-21T06:17:56;7.30;93.10
80279;DHT22;70683;52.492;13.416;2023-11-21T06:20:24;7.30;93.30
80279;DHT22;70683;52.492;13.416;2023-11-21T06:22:51;7.40;91.60
80279;DHT22;70683;52.492;13.416;2023-11-21T06:25:18;7.40;91.30
80279;DHT22;70683;52.492;13.416;2023-11-21T06:27:46;7.40;91.40
80279;DHT22;70683;52.492;13.416;2023-11-21T06:30:14;7.40;91.20
80279;DHT22;70683;52.492;13.416;2023-11-21T06:35:27;7.30;93.90
80279;DHT22;70683;52.492;13.416;2023-11-21T06:37:55;7.40;91.10
80279;DHT22;70683;52.492;13.416;2023-11-21T06:40:22;7.40;91.40
80279;DHT22;70683;52.492;13.416;2023-11-21T06:42:49;7.30;90.90
80279;DHT22;70683;52.492;13.416;2023-11-21T06:45:17;7.30;91.90
80279;DHT22;70683;52.492;13.416;2023-11-21T06:47:44;7.30;91.70
80279;DHT22;70683;52.492;13.416;2023-11-21T06:50:10;7.30;90.60
80279;DHT22;70683;52.492;13.416;2023-11-21T06:52:37;7.30;91.10
80279;DHT22;70683;52.492;13.416;2023-11-21T06:55:05;7.20;91.70
80279;DHT22;70683;52.492;13.416;2023-11-21T06:57:34;7.20;91.60
80279;DHT22;70683;52.492;13.416;2023-11-21T07:00:01;7.30;91.70
80279;DHT22;70683;52.492;13.416;2023-11-21T07:02:28;7.20;90.80
80279;DHT22;70683;52.492;13.416;2023-11-21T07:04:55;7.20;91.20
80279;DHT22;70683;52.492;13.416;2023-11-21T07:07:22;7.20;90.50
80279;DHT22;70683;52.492;13.416;2023-11-21T07:09:49;7.10;90.70
80279;DHT22;70683;52.492;13.416;2023-11-21T07:12:15;7.10;91.50
80279;DHT22;70683;52.492;13.416;2023-11-21T07:14:42;7.20;90.40
80279;DHT22;70683;52.492;13.416;2023-11-21T07:17:11;7.30;89.80
80279;DHT22;70683;52.492;13.416;2023-11-21T07:19:38;7.20;90.20
80279;DHT22;70683;52.492;13.416;2023-11-21T07:22:05;7.20;90.60
80279;DHT22;70683;52.492;13.416;2023-11-21T07:24:32;7.10;90.40
80279;DHT22;70683;52.492;13.416;2023-11-21T07:26:59;7.10;90.70
80279;DHT22;70683;52.492;13.416;2023-11-21T07:29:26;7.10;91.30
80279;DHT22;70683;52.492;13.416;2023-11-21T07:31:55;7.20;91.60
80279;DHT22;70683;52.492;13.416;2023-11-21T07:34:22;7.20;91.60
80279;DHT22;70683;52.492;13.416;2023-11-21T07:36:49;7.20;91.40
80279;DHT22;70683;52.492;13.416;2023-11-21T07:39:15;7.20;91.30
80279;DHT22;70683;52.492;13.416;2023-11-21T07:41:42;7.20;90.90
80279;DHT22;70683;52.492;13.416;2023-11-21T07:44:11;7.20;90.40
80279;DHT22;70683;52.492;13.416;2023-11-21T07:46:37;7.20;90.30
80279;DHT22;70683;52.492;13.416;2023-11-21T07:49:04;7.20;89.80
80279;DHT22;70683;52.492;13.416;2023-11-21T07:51:31;7.20;90.20
80279;DHT22;70683;52.492;13.416;2023-11-21T07:53:59;7.20;90.90
80279;DHT22;70683;52.492;13.416;2023-11-21T07:56:26;7.30;91.20
80279;DHT22;70683;52.492;13.416;2023-11-21T07:58:53;7.30;89.80
80279;DHT22;70683;52.492;13.416;2023-11-21T08:01:20;7.30;88.90
80279;DHT22;70683;52.492;13.416;2023-11-21T08:03:46;7.30;90.10
80279;DHT22;70683;52.492;13.416;2023-11-21T08:06:15;7.30;90.00
80279;DHT22;70683;52.492;13.416;2023-11-21T08:08:42;7.30;90.10
80279;DHT22;70683;52.492;13.416;2023-11-21T08:11:09;7.30;90.40
80279;DHT22;70683;52.492;13.416;2023-11-21T08:13:38;7.30;90.10
80279;DHT22;70683;52.492;13.416;2023-11-21T08:16:08;7.30;90.00
80279;DHT22;70683;52.492;13.416;2023-11-21T08:18:35;7.30;90.40
80279;DHT22;70683;52.492;13.416;2023-11-21T08:21:01;7.40;90.60
80279;DHT22;70683;52.492;13.416;2023-11-21T08:23:29;7.40;90.10
80279;DHT22;70683;52.492;13.416;2023-11-21T08:25:55;7.50;90.40
80279;DHT22;70683;52.492;13.416;2023-11-21T08:28:22;7.50;90.30
80279;DHT22;70683;52.492;13.416;2023-11-21T08:30:52;7.50;90.00
80279;DHT22;70683;52.492;13.416;2023-11-21T08:33:20;7.50;89.70
80279;DHT22;70683;52.492;13.416;2023-11-21T08:35:46;7.50;89.40
80279;DHT22;70683;52.492;13.416;2023-11-21T08:38:13;7.50;89.00
80279;DHT22;70683;52.492;13.416;2023-11-21T08:40:40;7.50;88.50
80279;DHT22;70683;52.492;13.416;2023-11-21T08:43:06;7.50;89.50
80279;DHT22;70683;52.492;13.416;2023-11-21T08:45:34;7.60;89.50
80279;DHT22;70683;52.492;13.416;2023-11-21T08:48:01;7.50;89.50
80279;DHT22;70683;52.492;13.416;2023-11-21T08:50:29;7.60;88.90
80279;DHT22;70683;52.492;13.416;2023-11-21T08:52:55;7.60;86.60
80279;DHT22;70683;52.492;13.416;2023-11-21T08:55:22;7.60;88.20
80279;DHT22;70683;52.492;13.416;2023-11-21T08:57:49;7.50;88.10
80279;DHT22;70683;52.492;13.416;2023-11-21T09:00:17;7.50;86.90
80279;DHT22;70683;52.492;13.416;2023-11-21T09:02:45;7.50;88.20
80279;DHT22;70683;52.492;13.416;2023-11-21T09:05:12;7.50;88.50
80279;DHT22;70683;52.492;13.416;2023-11-21T09:07:40;7.50;88.40
80279;DHT22;70683;52.492;13.416;2023-11-21T09:10:08;7.50;88.30
80279;DHT22;70683;52.492;13.416;2023-11-21T09:12:35;7.50;88.80
80279;DHT22;70683;52.492;13.416;2023-11-21T09:15:05;7.50;87.50
80279;DHT22;70683;52.492;13.416;2023-11-21T09:17:33;7.40;85.60
80279;DHT22;70683;52.492;13.416;2023-11-21T09:20:01;7.40;87.60
80279;DHT22;70683;52.492;13.416;2023-11-21T09:22:29;7.30;87.80
80279;DHT22;70683;52.492;13.416;2023-11-21T09:24:57;7.30;89.20
80279;DHT22;70683;52.492;13.416;2023-11-21T09:27:24;7.40;89.60
80279;DHT22;70683;52.492;13.416;2023-11-21T09:29:51;7.40;88.60
80279;DHT22;70683;52.492;13.416;2023-11-21T09:32:20;7.30;88.50
80279;DHT22;70683;52.492;13.416;2023-11-21T09:34:48;7.30;89.60
80279;DHT22;70683;52.492;13.416;2023-11-21T09:37:16;7.30;88.10
80279;DHT22;70683;52.492;13.416;2023-11-21T09:39:43;7.20;89.30
80279;DHT22;70683;52.492;13.416;2023-11-21T09:42:12;7.20;90.00
80279;DHT22;70683;52.492;13.416;2023-11-21T09:45:03;7.20;89.90
80279;DHT22;70683;52.492;13.416;2023-11-21T09:47:35;7.20;89.70
80279;DHT22;70683;52.492;13.416;2023-11-21T09:50:05;7.20;90.10
80279;DHT22;70683;52.492;13.416;2023-11-21T09:52:41;7.20;89.70
80279;DHT22;70683;52.492;13.416;2023-11-21T09:55:07;7.30;90.30
80279;DHT22;70683;52.492;13.416;2023-11-21T09:57:34;7.40;89.40
80279;DHT22;70683;52.492;13.416;2023-11-21T10:00:02;7.40;89.30
80279;DHT22;70683;52.492;13.416;2023-11-21T10:02:33;7.40;87.40
80279;DHT22;70683;52.492;13.416;2023-11-21T10:05:02;7.40;86.40
80279;DHT22;70683;52.492;13.416;2023-11-21T10:07:31;7.40;87.40
80279;DHT22;70683;52.492;13.416;2023-11-21T10:09:59;7.50;87.80
80279;DHT22;70683;52.492;13.416;2023-11-21T10:12:28;7.50;87.60
80279;DHT22;70683;52.492;13.416;2023-11-21T10:14:57;7.50;86.40
80279;DHT22;70683;52.492;13.416;2023-11-21T10:17:25;7.60;87.20
80279;DHT22;70683;52.492;13.416;2023-11-21T10:19:55;7.60;86.30
80279;DHT22;70683;52.492;13.416;2023-11-21T10:22:24;7.60;86.20
80279;DHT22;70683;52.492;13.416;2023-11-21T10:24:51;7.60;86.80
80279;DHT22;70683;52.492;13.416;2023-11-21T10:27:17;7.60;84.80
80279;DHT22;70683;52.492;13.416;2023-11-21T10:29:44;7.60;84.20
80279;DHT22;70683;52.492;13.416;2023-11-21T10:32:12;7.50;85.40
80279;DHT22;70683;52.492;13.416;2023-11-21T10:34:38;7.40;85.30
80279;DHT22;70683;52.492;13.416;2023-11-21T10:37:11;7.30;86.70
80279;DHT22;70683;52.492;13.416;2023-11-21T10:39:39;7.20;87.90
80279;DHT22;70683;52.492;13.416;2023-11-21T10:42:08;7.20;88.10
80279;DHT22;70683;52.492;13.416;2023-11-21T10:44:36;7.10;88.40
80279;DHT22;70683;52.492;13.416;2023-11-21T10:47:03;7.00;88.80
80279;DHT22;70683;52.492;13.416;2023-11-21T10:49:31;7.00;89.20
80279;DHT22;70683;52.492;13.416;2023-11-21T10:51:57;7.00;90.00
80279;DHT22;70683;52.492;13.416;2023-11-21T10:54:25;7.00;89.40
80279;DHT22;70683;52.492;13.416;2023-11-21T10:56:58;7.10;89.60
80279;DHT22;70683;52.492;13.416;2023-11-21T10:59:28;7.20;90.10
80279;DHT22;70683;52.492;13.416;2023-11-21T11:01:58;7.10;88.80
80279;DHT22;70683;52.492;13.416;2023-11-21T11:04:27;7.10;89.80
80279;DHT22;70683;52.492;13.416;2023-11-21T11:06:59;7.10;89.90
80279;DHT22;70683;52.492;13.416;2023-11-21T11:09:27;7.20;90.30
80279;DHT22;70683;52.492;13.416;2023-11-21T11:11:54;7.20;90.30
80279;DHT22;70683;52.492;13.416;2023-11-21T11:14:21;7.10;89.40
80279;DHT22;70683;52.492;13.416;2023-11-21T11:16:53;7.10;89.60
80279;DHT22;70683;52.492;13.416;2023-11-21T11:19:21;7.20;89.90
80279;DHT22;70683;52.492;13.416;2023-11-21T11:22:02;7.20;87.90
80279;DHT22;70683;52.492;13.416;2023-11-21T11:24:44;7.10;87.70
80279;DHT22;70683;52.492;13.416;2023-11-21T11:27:24;7.10;88.20
80279;DHT22;70683;52.492;13.416;2023-11-21T11:32:40;7.20;89.50
80279;DHT22;70683;52.492;13.416;2023-11-21T11:35:11;7.20;88.30
80279;DHT22;70683;52.492;13.416;2023-11-21T11:37:41;7.10;87.70
80279;DHT22;70683;52.492;13.416;2023-11-21T11:40:08;7.20;87.60
80279;DHT22;70683;52.492;13.416;2023-11-21T11:42:37;7.10;88.50
80279;DHT22;70683;52.492;13.416;2023-11-21T11:45:17;7.10;89.50
80279;DHT22;70683;52.492;13.416;2023-11-21T11:47:38;7.20;89.60
80279;DHT22;70683;52.492;13.416;2023-11-21T11:50:09;7.20;87.90
80279;DHT22;70683;52.492;13.416;2023-11-21T11:52:44;7.20;88.10
80279;DHT22;70683;52.492;13.416;2023-11-21T11:55:13;7.20;88.40
80279;DHT22;70683;52.492;13.416;2023-11-21T11:57:42;7.20;88.90
80279;DHT22;70683;52.492;13.416;2023-11-21T12:00:11;7.20;88.90
80279;DHT22;70683;52.492;13.416;2023-11-21T12:02:40;7.20;89.80
80279;DHT22;70683;52.492;13.416;2023-11-21T12:05:10;7.10;88.00
80279;DHT22;70683;52.492;13.416;2023-11-21T12:07:55;7.00;89.20
80279;DHT22;70683;52.492;13.416;2023-11-21T12:10:24;6.90;90.20
80279;DHT22;70683;52.492;13.416;2023-11-21T12:12:53;6.90;90.00
80279;DHT22;70683;52.492;13.416;2023-11-21T12:15:21;6.90;89.70
80279;DHT22;70683;52.492;13.416;2023-11-21T12:17:49;6.90;90.20
80279;DHT22;70683;52.492;13.416;2023-11-21T12:20:19;7.00;90.40
80279;DHT22;70683;52.492;13.416;2023-11-21T12:22:56;7.00;90.30
80279;DHT22;70683;52.492;13.416;2023-11-21T12:25:27;7.00;90.10
80279;DHT22;70683;52.492;13.416;2023-11-21T12:27:57;7.00;90.20
80279;DHT22;70683;52.492;13.416;2023-11-21T12:30:27;7.00;89.40
80279;DHT22;70683;52.492;13.416;2023-11-21T12:32:59;7.00;89.70
80279;DHT22;70683;52.492;13.416;2023-11-21T12:35:28;7.10;90.10
80279;DHT22;70683;52.492;13.416;2023-11-21T12:37:56;7.10;90.40
80279;DHT22;70683;52.492;13.416;2023-11-21T12:40:25;7.00;90.60
80279;DHT22;70683;52.492;13.416;2023-11-21T12:42:53;7.00;90.70
80279;DHT22;70683;52.492;13.416;2023-11-21T12:45:22;7.00;90.90
80279;DHT22;70683;52.492;13.416;2023-11-21T12:47:55;6.90;91.30
80279;DHT22;70683;52.492;13.416;2023-11-21T12:50:24;6.90;91.40
80279;DHT22;70683;52.492;13.416;2023-11-21T12:52:52;6.90;91.40
80279;DHT22;70683;52.492;13.416;2023-11-21T12:55:21;6.80;90.70
80279;DHT22;70683;52.492;13.416;2023-11-21T12:57:52;6.90;91.20
80279;DHT22;70683;52.492;13.416;2023-11-21T13:00:36;6.90;91.40
80279;DHT22;70683;52.492;13.416;2023-11-21T13:03:06;6.90;91.40
80279;DHT22;70683;52.492;13.416;2023-11-21T13:05:36;6.80;90.70
80279;DHT22;70683;52.492;13.416;2023-11-21T13:08:08;6.80;91.10
80279;DHT22;70683;52.492;13.416;2023-11-21T13:10:40;6.80;91.10
80279;DHT22;70683;52.492;13.416;2023-11-21T13:13:10;6.70;91.20
80279;DHT22;70683;52.492;13.416;2023-11-21T13:15:40;6.70;91.40
80279;DHT22;70683;52.492;13.416;2023-11-21T13:18:07;6.80;90.90
80279;DHT22;70683;52.492;13.416;2023-11-21T13:20:37;6.70;91.60
80279;DHT22;70683;52.492;13.416;2023-11-21T13:23:08;6.70;91.30
80279;DHT22;70683;52.492;13.416;2023-11-21T13:25:34;6.60;91.30
80279;DHT22;70683;52.492;13.416;2023-11-21T13:28:03;6.60;91.50
80279;DHT22;70683;52.492;13.416;2023-11-21T13:30:31;6.70;91.60
80279;DHT22;70683;52.492;13.416;2023-11-21T13:33:03;6.70;90.90
80279;DHT22;70683;52.492;13.416;2023-11-21T13:35:32;6.70;90.60
80279;DHT22;70683;52.492;13.416;2023-11-21T13:38:08;6.60;90.50
80279;DHT22;70683;52.492;13.416;2023-11-21T13:40:36;6.60;91.30
80279;DHT22;70683;52.492;13.416;2023-11-21T13:43:06;6.50;90.50
80279;DHT22;70683;52.492;13.416;2023-11-21T13:45:35;6.30;90.20
80279;DHT22;70683;52.492;13.416;2023-11-21T13:48:02;6.20;90.60
80279;DHT22;70683;52.492;13.416;2023-11-21T13:50:31;6.20;91.20
80279;DHT22;70683;52.492;13.416;2023-11-21T13:53:00;6.20;90.70
80279;DHT22;70683;52.492;13.416;2023-11-21T13:55:29;6.20;90.20
80279;DHT22;70683;52.492;13.416;2023-11-21T13:57:56;6.20;91.20
80279;DHT22;70683;52.492;13.416;2023-11-21T14:00:23;6.20;91.30
80279;DHT22;70683;52.492;13.416;2023-11-21T14:02:55;6.20;91.30
80279;DHT22;70683;52.492;13.416;2023-11-21T14:05:24;6.20;91.10
80279;DHT22;70683;52.492;13.416;2023-11-21T14:07:52;6.20;90.60
80279;DHT22;70683;52.492;13.416;2023-11-21T14:10:19;6.10;89.80
80279;DHT22;70683;52.492;13.416;2023-11-21T14:12:48;6.10;90.10
80279;DHT22;70683;52.492;13.416;2023-11-21T14:15:14;6.10;90.00
80279;DHT22;70683;52.492;13.416;2023-11-21T14:17:43;6.00;90.60
80279;DHT22;70683;52.492;13.416;2023-11-21T14:20:10;5.90;91.00
80279;DHT22;70683;52.492;13.416;2023-11-21T14:22:40;5.90;91.40
80279;DHT22;70683;52.492;13.416;2023-11-21T14:25:07;5.90;91.10
80279;DHT22;70683;52.492;13.416;2023-11-21T14:27:33;5.90;90.80
80279;DHT22;70683;52.492;13.416;2023-11-21T14:30:00;5.80;90.70
80279;DHT22;70683;52.492;13.416;2023-11-21T14:32:27;5.70;91.20
80279;DHT22;70683;52.492;13.416;2023-11-21T14:34:53;5.70;91.00
80279;DHT22;70683;52.492;13.416;2023-11-21T14:37:20;5.80;91.30
80279;DHT22;70683;52.492;13.416;2023-11-21T14:39:47;5.80;91.40
80279;DHT22;70683;52.492;13.416;2023-11-21T14:42:16;5.80;91.70
80279;DHT22;70683;52.492;13.416;2023-11-21T14:44:44;5.70;90.50
80279;DHT22;70683;52.492;13.416;2023-11-21T14:47:11;5.60;91.20
80279;DHT22;70683;52.492;13.416;2023-11-21T14:49:43;5.50;91.70
80279;DHT22;70683;52.492;13.416;2023-11-21T14:52:15;5.50;91.70
80279;DHT22;70683;52.492;13.416;2023-11-21T14:55:00;5.60;91.10
80279;DHT22;70683;52.492;13.416;2023-11-21T14:57:45;5.50;91.30
80279;DHT22;70683;52.492;13.416;2023-11-21T15:00:15;5.40;91.70
80279;DHT22;70683;52.492;13.416;2023-11-21T15:02:44;5.40;92.10
80279;DHT22;70683;52.492;13.416;2023-11-21T15:05:15;5.40;91.40
80279;DHT22;70683;52.492;13.416;2023-11-21T15:07:42;5.40;91.80
80279;DHT22;70683;52.492;13.416;2023-11-21T15:10:10;5.30;91.40
80279;DHT22;70683;52.492;13.416;2023-11-21T15:12:39;5.30;92.00
80279;DHT22;70683;52.492;13.416;2023-11-21T15:15:06;5.30;92.00
80279;DHT22;70683;52.492;13.416;2023-11-21T15:17:35;5.30;91.10
80279;DHT22;70683;52.492;13.416;2023-11-21T15:20:03;5.30;91.60
80279;DHT22;70683;52.492;13.416;2023-11-21T15:22:32;5.40;91.70
80279;DHT22;70683;52.492;13.416;2023-11-21T15:24:59;5.40;91.50
80279;DHT22;70683;52.492;13.416;2023-11-21T15:27:27;5.30;90.30
80279;DHT22;70683;52.492;13.416;2023-11-21T15:29:54;5.20;90.50
80279;DHT22;70683;52.492;13.416;2023-11-21T15:32:20;5.20;90.70
80279;DHT22;70683;52.492;13.416;2023-11-21T15:34:48;5.20;90.80
80279;DHT22;70683;52.492;13.416;2023-11-21T15:37:14;5.20;90.50
80279;DHT22;70683;52.492;13.416;2023-11-21T15:39:41;5.20;90.90
80279;DHT22;70683;52.492;13.416;2023-11-21T15:42:08;5.20;90.40